sensor_id;sensor_type;location;lat;lon;timestamp;temperature;humidity
21149;DHT22;10732;51.472;6.466;2022-12-29T00:02:08;10.80;99.90
21149;DHT22;10732;51.472;6.466;2022-12-29T00:04:34;10.80;99.90
21149;DHT22;10732;51.472;6.466;2022-12-29T00:06:59;10.70;99.90
21149;DHT22;10732;51.472;6.466;2022-12-29T00:09:26;10.60;99.90
21149;DHT22;10732;51.472;6.466;2022-12-29T00:11:51;10.40;99.90
21149;DHT22;10732;51.472;6.466;2022-12-29T00:14:17;10.40;99.90
21149;DHT22;10732;51.472;6.466;2022-12-29T00:17:02;10.30;99.90
21149;DHT22;10732;51.472;6.466;2022-12-29T00:19:28;10.30;99.90
21149;DHT22;10732;51.472;6.466;2022-12-29T00:22:13;10.30;99.90
21149;DHT22;10732;51.472;6.466;2022-12-29T00:25:01;10.30;99.90
21149;DHT22;10732;51.472;6.466;2022-12-29T00:27:28;10.30;99.90
21149;DHT22;10732;51.472;6.466;2022-12-29T00:30:20;10.40;99.90
21149;DHT22;10732;51.472;6.466;2022-12-29T00:33:20;10.50;99.90
21149;DHT22;10732;51.472;6.466;2022-12-29T00:36:14;10.60;99.90
21149;DHT22;10732;51.472;6.466;2022-12-29T00:38:47;10.60;99.90
21149;DHT22;10732;51.472;6.466;2022-12-29T00:41:32;10.60;99.90
21149;DHT22;10732;51.472;6.466;2022-12-29T00:44:16;10.60;99.90
21149;DHT22;10732;51.472;6.466;2022-12-29T00:46:42;10.70;99.90
21149;DHT22;10732;51.472;6.466;2022-12-29T00:49:11;10.70;99.90
21149;DHT22;10732;51.472;6.466;2022-12-29T00:52:00;10.60;99.90
21149;DHT22;10732;51.472;6.466;2022-12-29T00:54:26;10.60;99.90
21149;DHT22;10732;51.472;6.466;2022-12-29T00:56:53;10.50;99.90
21149;DHT22;10732;51.472;6.466;2022-12-29T00:59:19;10.50;99.90
21149;DHT22;10732;51.472;6.466;2022-12-29T01:01:45;10.50;99.90
21149;DHT22;10732;51.472;6.466;2022-12-29T01:04:12;10.40;99.90
21149;DHT22;10732;51.472;6.466;2022-12-29T01:06:38;10.40;99.90
21149;DHT22;10732;51.472;6.466;2022-12-29T01:09:05;10.50;99.90
21149;DHT22;10732;51.472;6.466;2022-12-29T01:11:49;10.40;99.90
21149;DHT22;10732;51.472;6.466;2022-12-29T01:14:15;10.50;99.90
21149;DHT22;10732;51.472;6.466;2022-12-29T01:16:41;10.60;99.90
21149;DHT22;10732;51.472;6.466;2022-12-29T01:19:07;10.60;99.90
21149;DHT22;10732;51.472;6.466;2022-12-29T01:21:33;10.70;99.90
21149;DHT22;10732;51.472;6.466;2022-12-29T01:23:58;10.70;99.90
21149;DHT22;10732;51.472;6.466;2022-12-29T01:26:24;10.80;99.90
21149;DHT22;10732;51.472;6.466;2022-12-29T01:28:49;10.80;99.90
21149;DHT22;10732;51.472;6.466;2022-12-29T01:31:15;10.90;99.90
21149;DHT22;10732;51.472;6.466;2022-12-29T01:33:42;10.90;99.90
21149;DHT22;10732;51.472;6.466;2022-12-29T01:36:10;11.00;99.90
21149;DHT22;10732;51.472;6.466;2022-12-29T01:38:37;11.00;99.90
21149;DHT22;10732;51.472;6.466;2022-12-29T01:41:04;11.00;99.90
21149;DHT22;10732;51.472;6.466;2022-12-29T01:43:47;11.00;99.90
21149;DHT22;10732;51.472;6.466;2022-12-29T01:46:41;11.00;99.90
21149;DHT22;10732;51.472;6.466;2022-12-29T01:49:10;11.20;99.90
21149;DHT22;10732;51.472;6.466;2022-12-29T01:51:43;11.20;99.90
21149;DHT22;10732;51.472;6.466;2022-12-29T01:54:20;11.20;99.90
21149;DHT22;10732;51.472;6.466;2022-12-29T01:56:48;11.30;99.90
21149;DHT22;10732;51.472;6.466;2022-12-29T01:59:18;11.20;99.90
21149;DHT22;10732;51.472;6.466;2022-12-29T02:01:45;11.20;99.90
21149;DHT22;10732;51.472;6.466;2022-12-29T02:04:12;11.20;99.90
21149;DHT22;10732;51.472;6.466;2022-12-29T02:06:43;11.20;99.90
21149;DHT22;10732;51.472;6.466;2022-12-29T02:09:11;11.30;99.90
21149;DHT22;10732;51.472;6.466;2022-12-29T02:11:38;11.30;99.90
21149;DHT22;10732;51.472;6.466;2022-12-29T02:14:13;11.20;99.90
21149;DHT22;10732;51.472;6.466;2022-12-29T02:17:08;11.40;99.90
21149;DHT22;10732;51.472;6.466;2022-12-29T02:23:02;11.30;99.90
21149;DHT22;10732;51.472;6.466;2022-12-29T02:31:12;11.30;99.90
21149;DHT22;10732;51.472;6.466;2022-12-29T02:36:38;11.50;99.90
21149;DHT22;10732;51.472;6.466;2022-12-29T02:39:43;11.50;99.90
21149;DHT22;10732;51.472;6.466;2022-12-29T02:50:37;11.40;99.90
21149;DHT22;10732;51.472;6.466;2022-12-29T02:53:11;11.30;99.90
21149;DHT22;10732;51.472;6.466;2022-12-29T02:55:38;11.40;99.90
21149;DHT22;10732;51.472;6.466;2022-12-29T03:00:59;11.20;99.90
21149;DHT22;10732;51.472;6.466;2022-12-29T03:09:12;11.10;99.90
21149;DHT22;10732;51.472;6.466;2022-12-29T03:11:51;11.10;99.90
21149;DHT22;10732;51.472;6.466;2022-12-29T03:14:39;11.10;99.90
21149;DHT22;10732;51.472;6.466;2022-12-29T03:17:40;11.20;99.90
21149;DHT22;10732;51.472;6.466;2022-12-29T03:20:11;11.20;99.90
21149;DHT22;10732;51.472;6.466;2022-12-29T03:22:43;11.10;99.90
21149;DHT22;10732;51.472;6.466;2022-12-29T03:25:31;11.00;99.90
21149;DHT22;10732;51.472;6.466;2022-12-29T03:28:01;10.80;99.90
21149;DHT22;10732;51.472;6.466;2022-12-29T03:30:29;10.70;99.90
21149;DHT22;10732;51.472;6.466;2022-12-29T03:32:59;10.60;99.90
21149;DHT22;10732;51.472;6.466;2022-12-29T03:35:28;10.60;99.90
21149;DHT22;10732;51.472;6.466;2022-12-29T03:38:07;10.60;99.90
21149;DHT22;10732;51.472;6.466;2022-12-29T03:40:38;10.60;99.90
21149;DHT22;10732;51.472;6.466;2022-12-29T03:43:05;10.60;99.90
21149;DHT22;10732;51.472;6.466;2022-12-29T03:45:31;10.60;99.90
21149;DHT22;10732;51.472;6.466;2022-12-29T03:47:56;10.50;99.90
21149;DHT22;10732;51.472;6.466;2022-12-29T03:50:22;10.50;99.90
21149;DHT22;10732;51.472;6.466;2022-12-29T03:52:47;10.50;99.90
21149;DHT22;10732;51.472;6.466;2022-12-29T03:55:13;10.50;99.90
21149;DHT22;10732;51.472;6.466;2022-12-29T03:57:39;10.50;99.90
21149;DHT22;10732;51.472;6.466;2022-12-29T04:00:06;10.50;99.90
21149;DHT22;10732;51.472;6.466;2022-12-29T04:02:32;10.50;99.90
21149;DHT22;10732;51.472;6.466;2022-12-29T04:04:57;10.60;99.90
21149;DHT22;10732;51.472;6.466;2022-12-29T04:07:23;10.60;99.90
21149;DHT22;10732;51.472;6.466;2022-12-29T04:09:48;10.60;99.90
21149;DHT22;10732;51.472;6.466;2022-12-29T04:12:14;10.60;99.90
21149;DHT22;10732;51.472;6.466;2022-12-29T04:14:40;10.60;99.90
21149;DHT22;10732;51.472;6.466;2022-12-29T04:17:06;10.50;99.90
21149;DHT22;10732;51.472;6.466;2022-12-29T04:19:31;10.40;99.90
21149;DHT22;10732;51.472;6.466;2022-12-29T04:21:57;10.40;99.90
21149;DHT22;10732;51.472;6.466;2022-12-29T04:24:22;10.30;99.90
21149;DHT22;10732;51.472;6.466;2022-12-29T04:26:48;10.30;99.90
21149;DHT22;10732;51.472;6.466;2022-12-29T04:29:13;10.20;99.90
21149;DHT22;10732;51.472;6.466;2022-12-29T04:31:39;10.00;99.90
21149;DHT22;10732;51.472;6.466;2022-12-29T04:34:04;9.80;99.90
21149;DHT22;10732;51.472;6.466;2022-12-29T04:36:30;9.40;99.90
21149;DHT22;10732;51.472;6.466;2022-12-29T04:38:56;9.30;99.90
21149;DHT22;10732;51.472;6.466;2022-12-29T04:41:21;9.20;99.90
21149;DHT22;10732;51.472;6.466;2022-12-29T04:43:47;9.20;99.90
21149;DHT22;10732;51.472;6.466;2022-12-29T04:46:13;9.30;99.90
21149;DHT22;10732;51.472;6.466;2022-12-29T04:48:38;9.30;99.90
21149;DHT22;10732;51.472;6.466;2022-12-29T04:51:04;9.30;99.90
21149;DHT22;10732;51.472;6.466;2022-12-29T04:53:29;9.20;99.90
21149;DHT22;10732;51.472;6.466;2022-12-29T04:55:55;9.30;99.90
21149;DHT22;10732;51.472;6.466;2022-12-29T04:58:21;9.20;99.90
21149;DHT22;10732;51.472;6.466;2022-12-29T05:00:46;9.20;99.90
21149;DHT22;10732;51.472;6.466;2022-12-29T05:03:12;9.20;99.90
21149;DHT22;10732;51.472;6.466;2022-12-29T05:05:37;9.20;99.90
21149;DHT22;10732;51.472;6.466;2022-12-29T05:08:03;9.30;99.90
21149;DHT22;10732;51.472;6.466;2022-12-29T05:10:29;9.30;99.90
21149;DHT22;10732;51.472;6.466;2022-12-29T05:12:55;9.30;99.90
21149;DHT22;10732;51.472;6.466;2022-12-29T05:15:21;9.30;99.90
21149;DHT22;10732;51.472;6.466;2022-12-29T05:17:46;9.20;99.90
21149;DHT22;10732;51.472;6.466;2022-12-29T05:20:12;9.20;99.90
21149;DHT22;10732;51.472;6.466;2022-12-29T05:22:37;9.20;99.90
21149;DHT22;10732;51.472;6.466;2022-12-29T05:25:03;9.20;99.90
21149;DHT22;10732;51.472;6.466;2022-12-29T05:27:29;9.20;99.90
21149;DHT22;10732;51.472;6.466;2022-12-29T05:29:54;9.20;99.90
21149;DHT22;10732;51.472;6.466;2022-12-29T05:32:20;9.20;99.90
21149;DHT22;10732;51.472;6.466;2022-12-29T05:34:45;9.10;99.90
21149;DHT22;10732;51.472;6.466;2022-12-29T05:37:11;9.20;99.90
21149;DHT22;10732;51.472;6.466;2022-12-29T05:39:37;9.20;99.90
21149;DHT22;10732;51.472;6.466;2022-12-29T05:42:02;9.30;99.90
21149;DHT22;10732;51.472;6.466;2022-12-29T05:44:28;9.30;99.90
21149;DHT22;10732;51.472;6.466;2022-12-29T05:46:54;9.30;99.90
21149;DHT22;10732;51.472;6.466;2022-12-29T05:49:19;9.30;99.90
21149;DHT22;10732;51.472;6.466;2022-12-29T05:51:45;9.30;99.90
21149;DHT22;10732;51.472;6.466;2022-12-29T05:54:12;9.30;99.90
21149;DHT22;10732;51.472;6.466;2022-12-29T05:56:37;9.40;99.90
21149;DHT22;10732;51.472;6.466;2022-12-29T05:59:03;9.40;99.90
21149;DHT22;10732;51.472;6.466;2022-12-29T06:01:28;9.40;99.90
21149;DHT22;10732;51.472;6.466;2022-12-29T06:03:54;9.40;99.90
21149;DHT22;10732;51.472;6.466;2022-12-29T06:06:19;9.40;99.90
21149;DHT22;10732;51.472;6.466;2022-12-29T06:08:45;9.40;99.90
21149;DHT22;10732;51.472;6.466;2022-12-29T06:11:10;9.30;99.90
21149;DHT22;10732;51.472;6.466;2022-12-29T06:13:36;9.40;99.90
21149;DHT22;10732;51.472;6.466;2022-12-29T06:16:02;9.50;99.90
21149;DHT22;10732;51.472;6.466;2022-12-29T06:18:27;9.50;99.90
21149;DHT22;10732;51.472;6.466;2022-12-29T06:20:53;9.50;99.90
21149;DHT22;10732;51.472;6.466;2022-12-29T06:23:19;9.40;99.90
21149;DHT22;10732;51.472;6.466;2022-12-29T06:25:46;9.40;99.90
21149;DHT22;10732;51.472;6.466;2022-12-29T06:28:11;9.40;99.90
21149;DHT22;10732;51.472;6.466;2022-12-29T06:30:37;9.40;99.90
21149;DHT22;10732;51.472;6.466;2022-12-29T06:33:03;9.40;99.90
21149;DHT22;10732;51.472;6.466;2022-12-29T06:35:29;9.40;99.90
21149;DHT22;10732;51.472;6.466;2022-12-29T06:37:55;9.50;99.90
21149;DHT22;10732;51.472;6.466;2022-12-29T06:40:20;9.50;99.90
21149;DHT22;10732;51.472;6.466;2022-12-29T06:42:47;9.60;99.90
21149;DHT22;10732;51.472;6.466;2022-12-29T06:45:12;9.60;99.90
21149;DHT22;10732;51.472;6.466;2022-12-29T06:47:38;9.60;99.90
21149;DHT22;10732;51.472;6.466;2022-12-29T06:50:03;9.50;99.90
21149;DHT22;10732;51.472;6.466;2022-12-29T06:52:29;9.50;99.90
21149;DHT22;10732;51.472;6.466;2022-12-29T06:54:55;9.50;99.90
21149;DHT22;10732;51.472;6.466;2022-12-29T06:57:21;9.50;99.90
21149;DHT22;10732;51.472;6.466;2022-12-29T06:59:47;9.40;99.90
21149;DHT22;10732;51.472;6.466;2022-12-29T07:02:12;9.20;99.90
21149;DHT22;10732;51.472;6.466;2022-12-29T07:04:40;9.10;99.90
21149;DHT22;10732;51.472;6.466;2022-12-29T07:07:05;9.10;99.90
21149;DHT22;10732;51.472;6.466;2022-12-29T07:09:31;9.10;99.90
21149;DHT22;10732;51.472;6.466;2022-12-29T07:11:57;9.10;99.90
21149;DHT22;10732;51.472;6.466;2022-12-29T07:14:22;9.10;99.90
21149;DHT22;10732;51.472;6.466;2022-12-29T07:16:48;9.20;99.90
21149;DHT22;10732;51.472;6.466;2022-12-29T07:19:13;9.30;99.90
21149;DHT22;10732;51.472;6.466;2022-12-29T07:21:39;9.40;99.90
21149;DHT22;10732;51.472;6.466;2022-12-29T07:24:05;9.50;99.90
21149;DHT22;10732;51.472;6.466;2022-12-29T07:26:30;9.50;99.90
21149;DHT22;10732;51.472;6.466;2022-12-29T07:28:56;9.50;99.90
21149;DHT22;10732;51.472;6.466;2022-12-29T07:31:22;9.50;99.90
21149;DHT22;10732;51.472;6.466;2022-12-29T07:33:48;9.40;99.90
21149;DHT22;10732;51.472;6.466;2022-12-29T07:36:15;9.50;99.90
21149;DHT22;10732;51.472;6.466;2022-12-29T07:38:41;9.40;99.90
21149;DHT22;10732;51.472;6.466;2022-12-29T07:41:08;9.50;99.90
21149;DHT22;10732;51.472;6.466;2022-12-29T07:43:33;9.60;99.90
21149;DHT22;10732;51.472;6.466;2022-12-29T07:45:59;9.90;99.90
21149;DHT22;10732;51.472;6.466;2022-12-29T07:48:24;9.80;99.90
21149;DHT22;10732;51.472;6.466;2022-12-29T07:50:50;9.80;99.90
21149;DHT22;10732;51.472;6.466;2022-12-29T07:53:16;9.80;99.90
21149;DHT22;10732;51.472;6.466;2022-12-29T07:55:42;9.80;99.90
21149;DHT22;10732;51.472;6.466;2022-12-29T07:58:07;10.00;99.90
21149;DHT22;10732;51.472;6.466;2022-12-29T08:00:33;9.90;99.90
21149;DHT22;10732;51.472;6.466;2022-12-29T08:02:59;9.80;99.90
21149;DHT22;10732;51.472;6.466;2022-12-29T08:05:25;9.80;99.90
21149;DHT22;10732;51.472;6.466;2022-12-29T08:07:50;10.00;99.90
21149;DHT22;10732;51.472;6.466;2022-12-29T08:10:16;10.00;99.90
21149;DHT22;10732;51.472;6.466;2022-12-29T08:12:42;9.90;99.90
21149;DHT22;10732;51.472;6.466;2022-12-29T08:15:09;9.90;99.90
21149;DHT22;10732;51.472;6.466;2022-12-29T08:17:35;9.90;99.90
21149;DHT22;10732;51.472;6.466;2022-12-29T08:20:01;9.80;99.90
21149;DHT22;10732;51.472;6.466;2022-12-29T08:22:27;10.00;99.90
21149;DHT22;10732;51.472;6.466;2022-12-29T08:24:52;10.00;99.90
21149;DHT22;10732;51.472;6.466;2022-12-29T08:27:18;9.90;99.90
21149;DHT22;10732;51.472;6.466;2022-12-29T08:29:44;10.10;99.90
21149;DHT22;10732;51.472;6.466;2022-12-29T08:32:09;10.10;99.90
21149;DHT22;10732;51.472;6.466;2022-12-29T08:34:35;10.10;99.90
21149;DHT22;10732;51.472;6.466;2022-12-29T08:37:00;10.10;99.90
21149;DHT22;10732;51.472;6.466;2022-12-29T08:39:26;10.00;99.90
21149;DHT22;10732;51.472;6.466;2022-12-29T08:41:51;10.10;99.90
21149;DHT22;10732;51.472;6.466;2022-12-29T08:44:17;10.10;99.90
21149;DHT22;10732;51.472;6.466;2022-12-29T08:46:42;10.30;99.90
21149;DHT22;10732;51.472;6.466;2022-12-29T08:49:08;10.40;99.90
21149;DHT22;10732;51.472;6.466;2022-12-29T08:51:34;10.40;99.90
21149;DHT22;10732;51.472;6.466;2022-12-29T08:54:00;10.50;99.90
21149;DHT22;10732;51.472;6.466;2022-12-29T08:56:25;10.60;99.90
21149;DHT22;10732;51.472;6.466;2022-12-29T08:58:52;10.60;99.90
21149;DHT22;10732;51.472;6.466;2022-12-29T09:01:18;10.60;99.90
21149;DHT22;10732;51.472;6.466;2022-12-29T09:03:43;10.80;99.90
21149;DHT22;10732;51.472;6.466;2022-12-29T09:06:09;10.90;99.90
21149;DHT22;10732;51.472;6.466;2022-12-29T09:08:34;10.90;99.90
21149;DHT22;10732;51.472;6.466;2022-12-29T09:11:08;10.90;99.90
21149;DHT22;10732;51.472;6.466;2022-12-29T09:13:34;10.70;99.90
21149;DHT22;10732;51.472;6.466;2022-12-29T09:16:00;10.60;99.90
21149;DHT22;10732;51.472;6.466;2022-12-29T09:18:26;10.60;99.90
21149;DHT22;10732;51.472;6.466;2022-12-29T09:21:00;10.60;99.90
21149;DHT22;10732;51.472;6.466;2022-12-29T09:23:26;10.50;99.90
21149;DHT22;10732;51.472;6.466;2022-12-29T09:25:52;10.60;99.90
21149;DHT22;10732;51.472;6.466;2022-12-29T09:28:18;10.50;99.90
21149;DHT22;10732;51.472;6.466;2022-12-29T09:30:44;10.40;99.90
21149;DHT22;10732;51.472;6.466;2022-12-29T09:33:09;10.40;99.90
21149;DHT22;10732;51.472;6.466;2022-12-29T09:35:35;10.40;99.90
21149;DHT22;10732;51.472;6.466;2022-12-29T09:38:00;10.50;99.90
21149;DHT22;10732;51.472;6.466;2022-12-29T09:40:29;10.90;99.90
21149;DHT22;10732;51.472;6.466;2022-12-29T09:45:40;11.80;99.90
21149;DHT22;10732;51.472;6.466;2022-12-29T09:48:13;12.00;99.90
21149;DHT22;10732;51.472;6.466;2022-12-29T09:50:40;11.80;99.90
21149;DHT22;10732;51.472;6.466;2022-12-29T09:53:17;12.00;99.90
21149;DHT22;10732;51.472;6.466;2022-12-29T09:55:49;12.20;99.90
21149;DHT22;10732;51.472;6.466;2022-12-29T09:58:39;12.40;99.90
21149;DHT22;10732;51.472;6.466;2022-12-29T10:03:51;12.50;99.90
21149;DHT22;10732;51.472;6.466;2022-12-29T10:06:32;12.80;99.90
21149;DHT22;10732;51.472;6.466;2022-12-29T10:12:11;12.80;99.90
21149;DHT22;10732;51.472;6.466;2022-12-29T10:25:18;11.80;99.90
21149;DHT22;10732;51.472;6.466;2022-12-29T10:27:48;12.40;99.90
21149;DHT22;10732;51.472;6.466;2022-12-29T10:30:14;12.70;99.90
21149;DHT22;10732;51.472;6.466;2022-12-29T10:32:51;12.50;99.90
21149;DHT22;10732;51.472;6.466;2022-12-29T10:35:21;12.50;99.90
21149;DHT22;10732;51.472;6.466;2022-12-29T10:37:58;12.70;99.90
21149;DHT22;10732;51.472;6.466;2022-12-29T10:40:28;12.50;99.90
21149;DHT22;10732;51.472;6.466;2022-12-29T10:42:57;12.60;99.90
21149;DHT22;10732;51.472;6.466;2022-12-29T10:45:27;12.30;99.90
21149;DHT22;10732;51.472;6.466;2022-12-29T10:48:09;12.10;99.90
21149;DHT22;10732;51.472;6.466;2022-12-29T10:50:35;12.40;99.90
21149;DHT22;10732;51.472;6.466;2022-12-29T10:53:04;12.20;99.90
21149;DHT22;10732;51.472;6.466;2022-12-29T10:55:35;11.80;99.90
21149;DHT22;10732;51.472;6.466;2022-12-29T10:58:04;11.60;99.90
21149;DHT22;10732;51.472;6.466;2022-12-29T11:00:31;11.60;99.90
21149;DHT22;10732;51.472;6.466;2022-12-29T11:06:07;12.00;99.90
21149;DHT22;10732;51.472;6.466;2022-12-29T11:08:38;12.30;99.90
21149;DHT22;10732;51.472;6.466;2022-12-29T11:11:06;12.40;99.90
21149;DHT22;10732;51.472;6.466;2022-12-29T11:13:34;12.20;99.90
21149;DHT22;10732;51.472;6.466;2022-12-29T11:16:00;12.00;99.90
21149;DHT22;10732;51.472;6.466;2022-12-29T11:18:36;12.00;99.90
21149;DHT22;10732;51.472;6.466;2022-12-29T11:21:05;11.90;99.90
21149;DHT22;10732;51.472;6.466;2022-12-29T11:23:39;11.80;99.90
21149;DHT22;10732;51.472;6.466;2022-12-29T11:28:33;11.60;99.90
21149;DHT22;10732;51.472;6.466;2022-12-29T11:31:02;11.50;99.90
21149;DHT22;10732;51.472;6.466;2022-12-29T11:33:29;11.50;99.90
21149;DHT22;10732;51.472;6.466;2022-12-29T11:36:02;11.50;99.90
21149;DHT22;10732;51.472;6.466;2022-12-29T11:38:34;11.50;99.90
21149;DHT22;10732;51.472;6.466;2022-12-29T11:41:01;11.50;99.90
21149;DHT22;10732;51.472;6.466;2022-12-29T11:43:31;11.50;99.90
21149;DHT22;10732;51.472;6.466;2022-12-29T11:46:01;11.60;99.90
21149;DHT22;10732;51.472;6.466;2022-12-29T11:48:32;11.70;99.90
21149;DHT22;10732;51.472;6.466;2022-12-29T11:50:59;12.00;99.90
21149;DHT22;10732;51.472;6.466;2022-12-29T11:53:49;12.10;99.90
21149;DHT22;10732;51.472;6.466;2022-12-29T11:56:19;12.20;99.90
21149;DHT22;10732;51.472;6.466;2022-12-29T11:58:45;12.00;99.90
21149;DHT22;10732;51.472;6.466;2022-12-29T12:01:47;12.00;99.90
21149;DHT22;10732;51.472;6.466;2022-12-29T12:04:16;11.60;99.90
21149;DHT22;10732;51.472;6.466;2022-12-29T12:06:58;11.50;99.90
21149;DHT22;10732;51.472;6.466;2022-12-29T12:09:31;11.50;99.90
21149;DHT22;10732;51.472;6.466;2022-12-29T12:11:59;11.40;99.90
21149;DHT22;10732;51.472;6.466;2022-12-29T12:14:37;11.30;99.90
21149;DHT22;10732;51.472;6.466;2022-12-29T12:17:14;11.30;99.90
21149;DHT22;10732;51.472;6.466;2022-12-29T12:22:46;11.20;99.90
21149;DHT22;10732;51.472;6.466;2022-12-29T12:25:25;11.10;99.90
21149;DHT22;10732;51.472;6.466;2022-12-29T12:28:13;11.00;99.90
21149;DHT22;10732;51.472;6.466;2022-12-29T12:30:44;11.10;99.90
21149;DHT22;10732;51.472;6.466;2022-12-29T12:33:25;11.10;99.90
21149;DHT22;10732;51.472;6.466;2022-12-29T12:36:06;11.10;99.90
21149;DHT22;10732;51.472;6.466;2022-12-29T12:52:33;11.00;99.90
21149;DHT22;10732;51.472;6.466;2022-12-29T13:01:07;11.30;99.90
21149;DHT22;10732;51.472;6.466;2022-12-29T13:15:45;11.20;99.90
21149;DHT22;10732;51.472;6.466;2022-12-29T13:18:30;11.10;99.90
21149;DHT22;10732;51.472;6.466;2022-12-29T13:21:10;10.90;99.90
21149;DHT22;10732;51.472;6.466;2022-12-29T13:26:42;10.80;99.90
21149;DHT22;10732;51.472;6.466;2022-12-29T13:35:08;11.30;99.90
21149;DHT22;10732;51.472;6.466;2022-12-29T13:37:46;11.20;99.90
21149;DHT22;10732;51.472;6.466;2022-12-29T13:40:19;11.10;99.90
21149;DHT22;10732;51.472;6.466;2022-12-29T13:42:48;10.90;99.90
21149;DHT22;10732;51.472;6.466;2022-12-29T13:45:17;10.90;99.90
21149;DHT22;10732;51.472;6.466;2022-12-29T13:47:48;10.90;99.90
21149;DHT22;10732;51.472;6.466;2022-12-29T13:50:19;10.90;99.90
21149;DHT22;10732;51.472;6.466;2022-12-29T13:53:15;10.90;99.90
21149;DHT22;10732;51.472;6.466;2022-12-29T13:55:54;10.80;99.90
21149;DHT22;10732;51.472;6.466;2022-12-29T13:58:31;10.70;99.90
21149;DHT22;10732;51.472;6.466;2022-12-29T14:01:37;10.60;99.90
21149;DHT22;10732;51.472;6.466;2022-12-29T14:04:25;10.60;99.90
21149;DHT22;10732;51.472;6.466;2022-12-29T14:07:03;10.60;99.90
21149;DHT22;10732;51.472;6.466;2022-12-29T14:09:49;10.70;99.90
21149;DHT22;10732;51.472;6.466;2022-12-29T14:12:21;10.70;99.90
21149;DHT22;10732;51.472;6.466;2022-12-29T14:14:50;10.70;99.90
21149;DHT22;10732;51.472;6.466;2022-12-29T14:17:20;10.70;99.90
21149;DHT22;10732;51.472;6.466;2022-12-29T14:19:46;10.60;99.90
21149;DHT22;10732;51.472;6.466;2022-12-29T14:22:25;10.50;99.90
21149;DHT22;10732;51.472;6.466;2022-12-29T14:24:52;10.40;99.90
21149;DHT22;10732;51.472;6.466;2022-12-29T14:29:45;10.40;99.90
21149;DHT22;10732;51.472;6.466;2022-12-29T14:34:58;10.40;99.90
21149;DHT22;10732;51.472;6.466;2022-12-29T14:37:27;10.50;99.90
21149;DHT22;10732;51.472;6.466;2022-12-29T14:40:25;10.40;99.90
21149;DHT22;10732;51.472;6.466;2022-12-29T14:42:55;10.50;99.90
21149;DHT22;10732;51.472;6.466;2022-12-29T14:45:31;10.40;99.90
21149;DHT22;10732;51.472;6.466;2022-12-29T14:48:22;10.40;99.90
21149;DHT22;10732;51.472;6.466;2022-12-29T14:50:53;10.40;99.90
21149;DHT22;10732;51.472;6.466;2022-12-29T14:56:09;10.40;99.90
21149;DHT22;10732;51.472;6.466;2022-12-29T15:01:49;10.40;99.90
21149;DHT22;10732;51.472;6.466;2022-12-29T15:04:21;10.40;99.90
21149;DHT22;10732;51.472;6.466;2022-12-29T15:06:49;10.40;99.90
21149;DHT22;10732;51.472;6.466;2022-12-29T15:12:03;10.30;99.90
21149;DHT22;10732;51.472;6.466;2022-12-29T15:14:34;10.30;99.90
21149;DHT22;10732;51.472;6.466;2022-12-29T15:17:01;10.30;99.90
21149;DHT22;10732;51.472;6.466;2022-12-29T15:19:27;10.20;99.90
21149;DHT22;10732;51.472;6.466;2022-12-29T15:21:54;10.30;99.90
21149;DHT22;10732;51.472;6.466;2022-12-29T15:24:20;10.20;99.90
21149;DHT22;10732;51.472;6.466;2022-12-29T15:26:48;10.20;99.90
21149;DHT22;10732;51.472;6.466;2022-12-29T15:29:40;10.20;99.90
21149;DHT22;10732;51.472;6.466;2022-12-29T15:34:41;10.00;99.90
21149;DHT22;10732;51.472;6.466;2022-12-29T15:37:07;9.90;99.90
21149;DHT22;10732;51.472;6.466;2022-12-29T15:39:33;9.90;99.90
21149;DHT22;10732;51.472;6.466;2022-12-29T15:42:31;9.80;99.90
21149;DHT22;10732;51.472;6.466;2022-12-29T15:44:57;9.80;99.90
21149;DHT22;10732;51.472;6.466;2022-12-29T15:47:25;9.70;99.90
21149;DHT22;10732;51.472;6.466;2022-12-29T15:49:59;9.70;99.90
21149;DHT22;10732;51.472;6.466;2022-12-29T15:52:27;9.70;99.90
21149;DHT22;10732;51.472;6.466;2022-12-29T15:54:53;9.70;99.90
21149;DHT22;10732;51.472;6.466;2022-12-29T15:59:50;9.80;99.90
21149;DHT22;10732;51.472;6.466;2022-12-29T16:02:16;9.80;99.90
21149;DHT22;10732;51.472;6.466;2022-12-29T16:04:43;9.90;99.90
21149;DHT22;10732;51.472;6.466;2022-12-29T16:07:27;9.80;99.90
21149;DHT22;10732;51.472;6.466;2022-12-29T16:09:58;9.80;99.90
21149;DHT22;10732;51.472;6.466;2022-12-29T16:12:35;9.70;99.90
21149;DHT22;10732;51.472;6.466;2022-12-29T16:15:03;9.60;99.90
21149;DHT22;10732;51.472;6.466;2022-12-29T16:17:33;9.50;99.90
21149;DHT22;10732;51.472;6.466;2022-12-29T16:20:14;9.40;99.90
21149;DHT22;10732;51.472;6.466;2022-12-29T16:22:47;9.30;99.90
21149;DHT22;10732;51.472;6.466;2022-12-29T16:25:23;9.10;99.90
21149;DHT22;10732;51.472;6.466;2022-12-29T16:27:49;9.00;99.90
21149;DHT22;10732;51.472;6.466;2022-12-29T16:30:25;8.80;99.90
21149;DHT22;10732;51.472;6.466;2022-12-29T16:32:57;8.70;99.90
21149;DHT22;10732;51.472;6.466;2022-12-29T16:35:28;8.70;99.90
21149;DHT22;10732;51.472;6.466;2022-12-29T16:38:14;8.60;99.90
21149;DHT22;10732;51.472;6.466;2022-12-29T16:40:59;8.40;99.90
21149;DHT22;10732;51.472;6.466;2022-12-29T16:43:35;8.30;99.90
21149;DHT22;10732;51.472;6.466;2022-12-29T16:46:21;8.20;99.90
21149;DHT22;10732;51.472;6.466;2022-12-29T16:48:52;8.10;99.90
21149;DHT22;10732;51.472;6.466;2022-12-29T16:51:33;8.00;99.90
21149;DHT22;10732;51.472;6.466;2022-12-29T16:53:59;8.00;99.90
21149;DHT22;10732;51.472;6.466;2022-12-29T16:56:29;7.90;99.90
21149;DHT22;10732;51.472;6.466;2022-12-29T16:59:25;7.80;99.90
21149;DHT22;10732;51.472;6.466;2022-12-29T17:01:51;7.80;99.90
21149;DHT22;10732;51.472;6.466;2022-12-29T17:04:17;7.70;99.90
21149;DHT22;10732;51.472;6.466;2022-12-29T17:06:42;7.70;99.90
21149;DHT22;10732;51.472;6.466;2022-12-29T17:09:19;7.70;99.90
21149;DHT22;10732;51.472;6.466;2022-12-29T17:11:46;7.70;99.90
21149;DHT22;10732;51.472;6.466;2022-12-29T17:17:18;7.70;99.90
21149;DHT22;10732;51.472;6.466;2022-12-29T17:19:52;7.60;99.90
21149;DHT22;10732;51.472;6.466;2022-12-29T17:22:22;7.70;99.90
21149;DHT22;10732;51.472;6.466;2022-12-29T17:24:50;7.70;99.90
21149;DHT22;10732;51.472;6.466;2022-12-29T17:29:47;7.70;99.90
21149;DHT22;10732;51.472;6.466;2022-12-29T17:32:13;7.70;99.90
21149;DHT22;10732;51.472;6.466;2022-12-29T17:34:40;7.70;99.90
21149;DHT22;10732;51.472;6.466;2022-12-29T17:39:50;7.60;99.90
21149;DHT22;10732;51.472;6.466;2022-12-29T17:42:17;7.50;99.90
21149;DHT22;10732;51.472;6.466;2022-12-29T17:44:43;7.50;99.90
21149;DHT22;10732;51.472;6.466;2022-12-29T17:47:10;7.40;99.90
21149;DHT22;10732;51.472;6.466;2022-12-29T17:49:36;7.40;99.90
21149;DHT22;10732;51.472;6.466;2022-12-29T17:52:03;7.30;99.90
21149;DHT22;10732;51.472;6.466;2022-12-29T17:54:29;7.30;99.90
21149;DHT22;10732;51.472;6.466;2022-12-29T17:56:55;7.20;99.90
21149;DHT22;10732;51.472;6.466;2022-12-29T17:59:21;7.10;99.90
21149;DHT22;10732;51.472;6.466;2022-12-29T18:01:47;7.10;99.90